createdAt,value
2023-02-12T00:00:16.422Z,100.00
2023-02-12T00:02:43.958Z,100.00
2023-02-12T00:05:11.656Z,100.00
2023-02-12T00:07:39.246Z,100.00
2023-02-12T00:10:07.806Z,100.00
2023-02-12T00:12:35.213Z,100.00
2023-02-12T00:15:04.242Z,100.00
2023-02-12T00:17:31.663Z,100.00
2023-02-12T00:19:59.162Z,100.00
2023-02-12T00:22:27.865Z,100.00
2023-02-12T00:24:55.261Z,100.00
2023-02-12T00:27:22.946Z,100.00
2023-02-12T00:29:50.489Z,100.00
2023-02-12T00:32:19.793Z,100.00
2023-02-12T00:34:47.534Z,100.00
2023-02-12T00:37:15.723Z,100.00
2023-02-12T00:39:44.106Z,100.00
2023-02-12T00:42:11.856Z,100.00
2023-02-12T00:44:39.343Z,100.00
2023-02-12T00:47:06.844Z,100.00
2023-02-12T00:49:35.640Z,100.00
2023-02-12T00:52:04.731Z,100.00
2023-02-12T00:54:32.855Z,100.00
2023-02-12T00:57:00.357Z,100.00
2023-02-12T00:59:28.737Z,100.00
2023-02-12T01:01:56.745Z,100.00
2023-02-12T01:04:24.266Z,100.00
2023-02-12T01:06:53.045Z,100.00
2023-02-12T01:09:20.484Z,100.00
2023-02-12T01:11:47.929Z,100.00
2023-02-12T01:14:15.376Z,100.00
2023-02-12T01:16:42.997Z,100.00
2023-02-12T01:19:12.926Z,100.00
2023-02-12T01:21:40.528Z,100.00
2023-02-12T01:24:09.386Z,100.00
2023-02-12T01:26:36.822Z,100.00
2023-02-12T01:29:06.936Z,100.00
2023-02-12T01:31:37.310Z,100.00
2023-02-12T01:34:06.844Z,100.00
2023-02-12T01:36:34.689Z,100.00
2023-02-12T01:39:03.606Z,100.00
2023-02-12T01:41:35.860Z,100.00
2023-02-12T01:44:13.878Z,100.00
2023-02-12T01:46:41.862Z,100.00
2023-02-12T01:49:13.417Z,100.00
2023-02-12T01:51:43.243Z,100.00
2023-02-12T01:54:14.238Z,100.00
2023-02-12T01:56:43.943Z,100.00
2023-02-12T01:59:12.836Z,100.00
2023-02-12T02:01:40.492Z,100.00
2023-02-12T02:04:12.803Z,100.00
2023-02-12T02:06:48.179Z,100.00
2023-02-12T02:09:15.882Z,100.00
2023-02-12T02:12:02.127Z,100.00
2023-02-12T02:14:35.687Z,100.00
2023-02-12T02:17:25.323Z,100.00
2023-02-12T02:20:17.825Z,100.00
2023-02-12T02:22:52.785Z,100.00
2023-02-12T02:25:54.168Z,100.00
2023-02-12T02:28:40.914Z,100.00
2023-02-12T02:31:17.659Z,100.00
2023-02-12T02:33:53.631Z,100.00
2023-02-12T02:36:28.779Z,100.00
2023-02-12T02:39:04.121Z,100.00
2023-02-12T02:41:36.063Z,100.00
2023-02-12T02:44:08.953Z,100.00
2023-02-12T02:46:43.499Z,100.00
2023-02-12T02:49:17.773Z,100.00
2023-02-12T02:51:51.551Z,100.00
2023-02-12T02:54:22.926Z,100.00
2023-02-12T02:56:54.388Z,100.00
2023-02-12T02:59:27.202Z,100.00
2023-02-12T03:02:00.948Z,100.00
2023-02-12T03:04:34.001Z,100.00
2023-02-12T03:07:07.430Z,100.00
2023-02-12T03:09:40.085Z,100.00
2023-02-12T03:12:13.366Z,100.00
2023-02-12T03:14:45.074Z,100.00
2023-02-12T03:17:17.814Z,100.00
2023-02-12T03:19:51.699Z,100.00
2023-02-12T03:22:24.132Z,100.00
2023-02-12T03:24:57.041Z,100.00
2023-02-12T03:27:30.923Z,100.00
2023-02-12T03:29:59.470Z,100.00
2023-02-12T03:32:34.796Z,100.00
2023-02-12T03:35:11.695Z,100.00
2023-02-12T03:37:44.883Z,100.00
2023-02-12T03:40:18.530Z,100.00
2023-02-12T03:42:56.377Z,100.00
2023-02-12T03:45:37.551Z,100.00
2023-02-12T03:48:12.324Z,100.00
2023-02-12T03:50:46.745Z,100.00
2023-02-12T03:53:14.211Z,100.00
2023-02-12T03:55:46.220Z,100.00
2023-02-12T03:58:18.904Z,100.00
2023-02-12T04:00:46.976Z,100.00
2023-02-12T04:03:15.969Z,100.00
2023-02-12T04:05:43.542Z,100.00
2023-02-12T04:08:13.240Z,100.00
2023-02-12T04:10:53.942Z,100.00
2023-02-12T04:13:27.234Z,100.00
2023-02-12T04:16:08.237Z,100.00
2023-02-12T04:18:42.917Z,100.00
2023-02-12T04:21:17.688Z,100.00
2023-02-12T04:23:51.487Z,100.00
2023-02-12T04:26:24.738Z,100.00
2023-02-12T04:29:00.497Z,100.00
2023-02-12T04:31:32.581Z,100.00
2023-02-12T04:34:12.373Z,100.00
2023-02-12T04:36:46.090Z,100.00
2023-02-12T04:39:21.150Z,100.00
2023-02-12T04:41:48.915Z,100.00
2023-02-12T04:44:23.468Z,100.00
2023-02-12T04:46:50.934Z,100.00
2023-02-12T04:49:22.040Z,100.00
2023-02-12T04:51:50.376Z,100.00
2023-02-12T04:54:19.353Z,100.00
2023-02-12T04:56:47.395Z,100.00
2023-02-12T04:59:15.388Z,100.00
2023-02-12T05:01:44.108Z,100.00
2023-02-12T05:04:13.709Z,100.00
2023-02-12T05:06:43.362Z,100.00
2023-02-12T05:09:14.089Z,100.00
2023-02-12T05:11:41.586Z,100.00
2023-02-12T05:14:09.024Z,100.00
2023-02-12T05:16:36.590Z,100.00
2023-02-12T05:19:04.022Z,100.00
2023-02-12T05:21:31.489Z,100.00
2023-02-12T05:24:02.138Z,100.00
2023-02-12T05:26:29.782Z,100.00
2023-02-12T05:28:57.698Z,100.00
2023-02-12T05:31:25.330Z,100.00
2023-02-12T05:33:52.826Z,100.00
2023-02-12T05:36:22.621Z,100.00
2023-02-12T05:38:50.982Z,100.00
2023-02-12T05:41:21.923Z,100.00
2023-02-12T05:43:50.371Z,100.00
2023-02-12T05:46:18.931Z,100.00
2023-02-12T05:48:47.268Z,100.00
2023-02-12T05:51:16.904Z,100.00
2023-02-12T05:53:44.604Z,100.00
2023-02-12T05:56:16.146Z,100.00
2023-02-12T05:58:46.947Z,100.00
2023-02-12T06:01:17.041Z,100.00
2023-02-12T06:03:44.960Z,100.00
2023-02-12T06:06:13.421Z,100.00
2023-02-12T06:08:41.553Z,100.00
2023-02-12T06:11:13.838Z,100.00
2023-02-12T06:13:41.943Z,100.00
2023-02-12T06:16:18.864Z,100.00
2023-02-12T06:18:46.562Z,100.00
2023-02-12T06:21:14.401Z,100.00
2023-02-12T06:23:42.018Z,100.00
2023-02-12T06:26:09.978Z,100.00
2023-02-12T06:28:38.083Z,100.00
2023-02-12T06:31:18.846Z,100.00
2023-02-12T06:33:46.684Z,100.00
2023-02-12T06:36:14.482Z,100.00
2023-02-12T06:38:42.074Z,100.00
2023-02-12T06:41:09.781Z,100.00
2023-02-12T06:43:37.752Z,100.00
2023-02-12T06:46:06.630Z,100.00
2023-02-12T06:48:36.016Z,100.00
2023-02-12T06:51:08.709Z,100.00
2023-02-12T06:53:38.561Z,100.00
2023-02-12T06:56:11.102Z,100.00
2023-02-12T06:58:39.305Z,100.00
2023-02-12T07:01:13.199Z,100.00
2023-02-12T07:03:42.686Z,100.00
2023-02-12T07:06:11.025Z,100.00
2023-02-12T07:08:38.629Z,100.00
2023-02-12T07:11:07.082Z,100.00
2023-02-12T07:13:35.164Z,100.00
2023-02-12T07:16:07.080Z,100.00
2023-02-12T07:18:34.730Z,100.00
2023-02-12T07:21:03.939Z,100.00
2023-02-12T07:23:31.369Z,100.00
2023-02-12T07:25:59.502Z,100.00
2023-02-12T07:28:27.755Z,100.00
2023-02-12T07:30:55.475Z,100.00
2023-02-12T07:33:22.918Z,100.00
2023-02-12T07:35:50.364Z,100.00
2023-02-12T07:38:19.173Z,100.00
2023-02-12T07:40:46.608Z,100.00
2023-02-12T07:43:14.032Z,100.00
2023-02-12T07:45:41.493Z,100.00
2023-02-12T07:48:09.000Z,100.00
2023-02-12T07:50:36.416Z,100.00
2023-02-12T07:53:03.821Z,100.00
2023-02-12T07:55:32.558Z,100.00
2023-02-12T07:57:59.948Z,100.00
2023-02-12T08:00:27.402Z,100.00
2023-02-12T08:02:55.291Z,100.00
2023-02-12T08:05:22.704Z,100.00
2023-02-12T08:07:50.307Z,100.00
2023-02-12T08:10:22.118Z,100.00
2023-02-12T08:12:50.884Z,100.00
2023-02-12T08:15:18.311Z,100.00
2023-02-12T08:17:45.724Z,100.00
2023-02-12T08:20:13.838Z,100.00
2023-02-12T08:22:41.277Z,100.00
2023-02-12T08:25:09.197Z,100.00
2023-02-12T08:27:36.629Z,100.00
2023-02-12T08:30:05.713Z,100.00
2023-02-12T08:32:33.701Z,100.00
2023-02-12T08:35:01.101Z,100.00
2023-02-12T08:37:28.513Z,100.00
2023-02-12T08:39:55.898Z,100.00
2023-02-12T08:42:25.571Z,100.00
2023-02-12T08:44:52.988Z,100.00
2023-02-12T08:47:21.728Z,100.00
2023-02-12T08:49:49.131Z,100.00
2023-02-12T08:52:16.528Z,100.00
2023-02-12T08:54:43.910Z,100.00
2023-02-12T08:57:11.361Z,100.00
2023-02-12T08:59:38.765Z,100.00
2023-02-12T09:02:08.651Z,100.00
2023-02-12T09:04:37.620Z,100.00
2023-02-12T09:07:05.020Z,100.00
2023-02-12T09:09:32.416Z,100.00
2023-02-12T09:11:59.828Z,100.00
2023-02-12T09:14:27.281Z,100.00
2023-02-12T09:16:57.154Z,100.00
2023-02-12T09:19:24.854Z,100.00
2023-02-12T09:21:56.125Z,100.00
2023-02-12T09:24:24.280Z,100.00
2023-02-12T09:26:51.703Z,100.00
2023-02-12T09:29:19.099Z,100.00
2023-02-12T09:31:46.663Z,100.00
2023-02-12T09:34:14.138Z,100.00
2023-02-12T09:36:41.578Z,100.00
2023-02-12T09:39:10.438Z,100.00
2023-02-12T09:42:01.733Z,100.00
2023-02-12T09:44:37.097Z,100.00
2023-02-12T09:47:07.706Z,99.31
2023-02-12T09:49:50.689Z,100.00
2023-02-12T09:52:20.601Z,99.74
2023-02-12T09:54:50.645Z,99.30
2023-02-12T09:57:21.938Z,99.54
2023-02-12T09:59:53.641Z,99.20
2023-02-12T10:02:23.880Z,98.62
2023-02-12T10:05:01.148Z,98.61
2023-02-12T10:07:54.450Z,97.91
2023-02-12T10:10:34.752Z,97.67
2023-02-12T10:13:06.281Z,97.25
2023-02-12T10:15:39.635Z,97.38
2023-02-12T10:18:33.661Z,97.12
2023-02-12T10:21:12.928Z,96.96
2023-02-12T10:24:06.660Z,96.88
2023-02-12T10:26:39.607Z,96.43
2023-02-12T10:29:13.781Z,96.32
2023-02-12T10:31:44.974Z,96.55
2023-02-12T10:34:23.126Z,96.80
2023-02-12T10:36:52.666Z,96.65
2023-02-12T10:39:23.819Z,96.66
2023-02-12T10:41:59.277Z,96.88
2023-02-12T10:44:27.159Z,97.46
2023-02-12T10:46:55.138Z,96.91
2023-02-12T10:49:22.672Z,96.42
2023-02-12T10:52:01.805Z,97.28
2023-02-12T10:54:34.915Z,96.60
2023-02-12T10:57:10.802Z,96.49
2023-02-12T10:59:38.336Z,96.91
2023-02-12T11:02:17.927Z,96.82
2023-02-12T11:04:45.399Z,97.03
2023-02-12T11:07:12.896Z,96.48
2023-02-12T11:09:45.333Z,96.57
2023-02-12T11:12:26.349Z,96.26
2023-02-12T11:14:56.316Z,95.88
2023-02-12T11:17:31.636Z,96.44
2023-02-12T11:20:20.427Z,96.56
2023-02-12T11:22:53.413Z,95.77
2023-02-12T11:25:22.194Z,96.07
2023-02-12T11:28:06.945Z,95.40
2023-02-12T11:30:34.756Z,95.64
2023-02-12T11:33:23.545Z,95.33
2023-02-12T11:35:54.676Z,94.63
2023-02-12T11:38:29.402Z,94.86
2023-02-12T11:41:20.383Z,95.47
2023-02-12T11:43:50.068Z,94.45
2023-02-12T11:46:22.277Z,94.05
2023-02-12T11:48:50.568Z,93.44
2023-02-12T11:51:22.738Z,94.46
2023-02-12T11:53:52.598Z,94.20
2023-02-12T11:56:20.751Z,94.32
2023-02-12T11:58:50.919Z,93.99
2023-02-12T12:01:22.841Z,94.51
2023-02-12T12:03:56.853Z,94.30
2023-02-12T12:06:30.172Z,93.85
2023-02-12T12:09:04.747Z,93.41
2023-02-12T12:11:40.197Z,93.46
2023-02-12T12:14:17.668Z,93.43
2023-02-12T12:17:08.595Z,93.73
2023-02-12T12:19:54.695Z,93.55
2023-02-12T12:22:30.808Z,94.28
2023-02-12T12:25:06.450Z,93.82
2023-02-12T12:27:59.763Z,94.15
2023-02-12T12:30:38.624Z,94.50
2023-02-12T12:33:11.311Z,94.71
2023-02-12T12:35:47.532Z,93.59
2023-02-12T12:38:26.536Z,93.26
2023-02-12T12:41:03.749Z,93.35
2023-02-12T12:43:42.619Z,92.98
2023-02-12T12:46:30.758Z,93.29
2023-02-12T12:49:29.619Z,93.14
2023-02-12T12:52:11.786Z,93.69
2023-02-12T12:54:56.551Z,92.98
2023-02-12T12:57:38.131Z,93.69
2023-02-12T13:00:31.919Z,93.17
2023-02-12T13:03:20.331Z,93.12
2023-02-12T13:06:04.034Z,93.13
2023-02-12T13:08:56.639Z,93.38
2023-02-12T13:11:36.018Z,92.92
2023-02-12T13:14:14.706Z,92.14
2023-02-12T13:16:49.056Z,92.37
2023-02-12T13:19:28.886Z,92.18
2023-02-12T13:22:02.976Z,92.72
2023-02-12T13:24:37.320Z,92.89
2023-02-12T13:27:08.651Z,92.50
2023-02-12T13:29:39.491Z,92.71
2023-02-12T13:32:13.050Z,92.55
2023-02-12T13:34:44.153Z,91.79
2023-02-12T13:37:18.440Z,91.78
2023-02-12T13:39:49.498Z,91.46
2023-02-12T13:42:28.410Z,91.59
2023-02-12T13:45:01.834Z,91.36
2023-02-12T13:47:43.229Z,90.88
2023-02-12T13:50:21.516Z,91.62
2023-02-12T13:52:55.232Z,91.41
2023-02-12T13:55:26.557Z,91.59
2023-02-12T13:58:31.175Z,92.02
2023-02-12T14:01:00.738Z,91.86
2023-02-12T14:03:30.646Z,91.70
2023-02-12T14:06:16.429Z,91.77
2023-02-12T14:08:45.903Z,91.88
2023-02-12T14:11:17.268Z,91.50
2023-02-12T14:13:54.213Z,91.56
2023-02-12T14:16:40.620Z,91.11
2023-02-12T14:19:40.172Z,92.26
2023-02-12T14:22:35.539Z,91.85
2023-02-12T14:25:32.048Z,92.01
2023-02-12T14:28:07.446Z,91.79
2023-02-12T14:30:39.046Z,91.31
2023-02-12T14:33:26.515Z,91.02
2023-02-12T14:36:30.490Z,91.17
2023-02-12T14:39:00.152Z,91.24
2023-02-12T14:41:43.988Z,91.46
2023-02-12T14:44:55.812Z,91.67
2023-02-12T14:47:53.667Z,92.03
2023-02-12T14:50:25.921Z,91.64
2023-02-12T14:52:57.497Z,91.71
2023-02-12T14:55:28.497Z,91.77
2023-02-12T14:58:00.791Z,91.74
2023-02-12T15:00:35.136Z,91.84
2023-02-12T15:03:14.902Z,91.80
2023-02-12T15:05:44.570Z,92.27
2023-02-12T15:08:20.358Z,92.27
2023-02-12T15:10:51.215Z,93.09
2023-02-12T15:13:29.354Z,93.27
2023-02-12T15:16:01.232Z,93.38
2023-02-12T15:18:34.729Z,93.24
2023-02-12T15:21:12.798Z,92.97
2023-02-12T15:23:42.921Z,92.54
2023-02-12T15:26:16.166Z,92.70
2023-02-12T15:28:48.314Z,92.98
2023-02-12T15:31:17.912Z,92.99
2023-02-12T15:33:48.726Z,92.63
2023-02-12T15:36:19.980Z,92.76
2023-02-12T15:38:50.526Z,92.87
2023-02-12T15:41:30.179Z,93.15
2023-02-12T15:43:59.954Z,92.77
2023-02-12T15:46:27.414Z,92.82
2023-02-12T15:48:55.372Z,92.94
2023-02-12T15:51:30.971Z,93.73
2023-02-12T15:54:00.431Z,94.13
2023-02-12T15:56:28.770Z,94.18
2023-02-12T15:59:00.295Z,94.09
2023-02-12T16:01:29.390Z,93.99
2023-02-12T16:03:58.871Z,93.82
2023-02-12T16:06:29.307Z,93.51
2023-02-12T16:09:00.022Z,93.48
2023-02-12T16:11:29.563Z,93.39
2023-02-12T16:14:02.471Z,93.29
2023-02-12T16:16:32.380Z,93.46
2023-02-12T16:19:09.154Z,93.37
2023-02-12T16:21:39.398Z,93.45
2023-02-12T16:24:26.282Z,93.01
2023-02-12T16:26:54.392Z,92.85
2023-02-12T16:29:23.150Z,92.43
2023-02-12T16:31:54.868Z,92.71
2023-02-12T16:34:34.491Z,91.99
2023-02-12T16:37:02.534Z,92.42
2023-02-12T16:40:16.263Z,92.13
2023-02-12T16:43:01.738Z,92.04
2023-02-12T16:45:38.377Z,92.21
2023-02-12T16:48:17.018Z,91.58
2023-02-12T16:50:49.001Z,91.38
2023-02-12T16:53:43.542Z,91.25
2023-02-12T16:56:17.953Z,90.94
2023-02-12T16:58:48.182Z,91.20
2023-02-12T17:01:23.410Z,91.36
2023-02-12T17:03:51.865Z,91.81
2023-02-12T17:06:21.277Z,91.86
2023-02-12T17:08:48.999Z,92.52
2023-02-12T17:11:17.714Z,92.54
2023-02-12T17:13:46.988Z,92.55
2023-02-12T17:16:29.514Z,92.79
2023-02-12T17:18:59.685Z,93.15
2023-02-12T17:21:29.662Z,92.99
2023-02-12T17:23:57.144Z,93.15
2023-02-12T17:26:25.725Z,93.51
2023-02-12T17:28:53.143Z,93.57
2023-02-12T17:31:21.135Z,93.29
2023-02-12T17:33:48.679Z,93.25
2023-02-12T17:36:17.494Z,93.59
2023-02-12T17:38:44.948Z,93.95
2023-02-12T17:41:12.396Z,93.83
2023-02-12T17:43:39.794Z,93.78
2023-02-12T17:46:10.096Z,94.11
2023-02-12T17:48:37.846Z,94.39
2023-02-12T17:51:05.623Z,94.20
2023-02-12T17:53:34.368Z,94.24
2023-02-12T17:56:01.802Z,94.29
2023-02-12T17:58:29.314Z,94.53
2023-02-12T18:00:57.091Z,94.40
2023-02-12T18:03:24.748Z,94.52
2023-02-12T18:05:52.688Z,94.55
2023-02-12T18:08:20.086Z,94.76
2023-02-12T18:10:48.823Z,94.59
2023-02-12T18:13:16.272Z,94.97
2023-02-12T18:15:43.696Z,95.32
2023-02-12T18:18:11.141Z,95.61
2023-02-12T18:20:40.985Z,95.55
2023-02-12T18:23:09.225Z,95.39
2023-02-12T18:25:40.412Z,95.42
2023-02-12T18:28:09.316Z,95.76
2023-02-12T18:30:38.763Z,95.55
2023-02-12T18:33:06.759Z,95.88
2023-02-12T18:35:34.495Z,95.57
2023-02-12T18:38:02.200Z,95.76
2023-02-12T18:40:29.826Z,95.55
2023-02-12T18:42:59.503Z,95.60
2023-02-12T18:45:28.528Z,96.00
2023-02-12T18:47:56.170Z,95.88
2023-02-12T18:50:23.863Z,95.80
2023-02-12T18:52:51.409Z,95.92
2023-02-12T18:55:19.061Z,96.11
2023-02-12T18:57:46.761Z,96.37
2023-02-12T19:00:15.153Z,96.47
2023-02-12T19:02:44.038Z,96.48
2023-02-12T19:05:11.928Z,96.50
2023-02-12T19:07:39.497Z,96.58
2023-02-12T19:10:16.962Z,96.59
2023-02-12T19:12:44.514Z,96.71
2023-02-12T19:15:13.324Z,96.99
2023-02-12T19:17:41.027Z,97.15
2023-02-12T19:20:11.697Z,97.09
2023-02-12T19:22:39.722Z,97.13
2023-02-12T19:25:12.822Z,97.48
2023-02-12T19:27:40.672Z,97.04
2023-02-12T19:30:10.389Z,97.31
2023-02-12T19:32:38.770Z,97.30
2023-02-12T19:35:06.852Z,97.38
2023-02-12T19:37:38.173Z,97.63
2023-02-12T19:40:06.897Z,97.70
2023-02-12T19:42:34.530Z,97.73
2023-02-12T19:45:02.285Z,98.29
2023-02-12T19:47:29.786Z,97.97
2023-02-12T19:49:57.313Z,98.15
2023-02-12T19:52:25.125Z,98.43
2023-02-12T19:54:56.196Z,98.44
2023-02-12T19:57:23.875Z,98.30
2023-02-12T19:59:53.555Z,98.27
2023-02-12T20:02:21.120Z,98.55
2023-02-12T20:04:48.697Z,98.37
2023-02-12T20:07:16.272Z,98.49
2023-02-12T20:09:43.879Z,98.37
2023-02-12T20:12:12.987Z,98.57
2023-02-12T20:14:40.601Z,98.90
2023-02-12T20:17:08.128Z,99.14
2023-02-12T20:19:35.888Z,99.05
2023-02-12T20:22:08.707Z,99.38
2023-02-12T20:24:36.316Z,99.32
2023-02-12T20:27:04.893Z,99.21
2023-02-12T20:29:33.876Z,99.44
2023-02-12T20:32:01.581Z,99.36
2023-02-12T20:34:30.431Z,99.23
2023-02-12T20:36:59.115Z,99.51
2023-02-12T20:39:26.664Z,99.49
2023-02-12T20:41:54.242Z,99.84
2023-02-12T20:44:22.941Z,99.76
2023-02-12T20:46:56.544Z,99.95
2023-02-12T20:49:25.241Z,100.00
2023-02-12T20:51:53.198Z,99.94
2023-02-12T20:54:20.941Z,100.00
2023-02-12T20:56:50.136Z,100.00
2023-02-12T20:59:18.325Z,99.94
2023-02-12T21:01:48.401Z,99.93
2023-02-12T21:04:19.576Z,100.00
2023-02-12T21:06:48.224Z,100.00
2023-02-12T21:09:16.152Z,100.00
2023-02-12T21:11:45.679Z,100.00
2023-02-12T21:14:23.827Z,100.00
2023-02-12T21:16:52.711Z,100.00
2023-02-12T21:19:28.172Z,100.00
2023-02-12T21:21:55.846Z,100.00
2023-02-12T21:24:27.096Z,100.00
2023-02-12T21:26:56.061Z,100.00
2023-02-12T21:29:26.492Z,100.00
2023-02-12T21:31:55.197Z,100.00
2023-02-12T21:34:24.609Z,100.00
2023-02-12T21:36:54.732Z,100.00
2023-02-12T21:39:25.994Z,100.00
2023-02-12T21:41:54.923Z,100.00
2023-02-12T21:44:23.993Z,100.00
2023-02-12T21:46:51.810Z,100.00
2023-02-12T21:49:24.725Z,100.00
2023-02-12T21:51:54.909Z,100.00
2023-02-12T21:54:22.709Z,100.00
2023-02-12T21:56:51.360Z,100.00
2023-02-12T21:59:19.563Z,100.00
2023-02-12T22:01:49.328Z,100.00
2023-02-12T22:04:17.816Z,100.00
2023-02-12T22:06:47.093Z,100.00
2023-02-12T22:09:18.129Z,100.00
2023-02-12T22:11:45.787Z,100.00
2023-02-12T22:14:14.675Z,100.00
2023-02-12T22:16:42.270Z,100.00
2023-02-12T22:19:10.107Z,100.00
2023-02-12T22:21:40.381Z,100.00
2023-02-12T22:24:12.066Z,100.00
2023-02-12T22:26:41.289Z,100.00
2023-02-12T22:29:10.531Z,100.00
2023-02-12T22:31:40.338Z,100.00
2023-02-12T22:34:11.827Z,100.00
2023-02-12T22:36:40.205Z,100.00
2023-02-12T22:39:08.209Z,100.00
2023-02-12T22:41:35.673Z,100.00
2023-02-12T22:44:05.861Z,100.00
2023-02-12T22:46:35.961Z,100.00
2023-02-12T22:49:03.451Z,100.00
2023-02-12T22:51:32.674Z,100.00
2023-02-12T22:54:00.845Z,100.00
2023-02-12T22:56:28.513Z,100.00
2023-02-12T22:58:56.868Z,100.00
2023-02-12T23:01:26.593Z,100.00
2023-02-12T23:03:54.712Z,100.00
2023-02-12T23:06:24.515Z,100.00
2023-02-12T23:08:53.542Z,100.00
2023-02-12T23:11:21.813Z,100.00
2023-02-12T23:13:49.246Z,100.00
2023-02-12T23:16:16.855Z,100.00
2023-02-12T23:18:45.693Z,100.00
2023-02-12T23:21:13.363Z,100.00
2023-02-12T23:23:41.003Z,100.00
2023-02-12T23:26:08.435Z,100.00
2023-02-12T23:28:36.064Z,100.00
2023-02-12T23:31:03.692Z,100.00
2023-02-12T23:33:31.385Z,100.00
2023-02-12T23:36:00.579Z,100.00
2023-02-12T23:38:28.098Z,100.00
2023-02-12T23:40:56.115Z,100.00
2023-02-12T23:43:23.772Z,100.00
2023-02-12T23:45:51.223Z,100.00
2023-02-12T23:48:18.839Z,100.00
2023-02-12T23:50:48.720Z,100.00
2023-02-12T23:53:18.956Z,100.00
2023-02-12T23:55:46.551Z,100.00
2023-02-12T23:58:13.994Z,100.00
